sensor_id;sensor_type;location;lat;lon;timestamp;temperature;humidity
42031;DHT22;27709;52.036;5.906;2024-02-26T00:01:27;6.80;99.90
42031;DHT22;27709;52.036;5.906;2024-02-26T00:03:52;6.80;99.90
42031;DHT22;27709;52.036;5.906;2024-02-26T00:06:20;6.80;99.90
42031;DHT22;27709;52.036;5.906;2024-02-26T00:08:46;6.80;99.90
42031;DHT22;27709;52.036;5.906;2024-02-26T00:11:12;6.80;99.90
42031;DHT22;27709;52.036;5.906;2024-02-26T00:13:37;6.80;99.90
42031;DHT22;27709;52.036;5.906;2024-02-26T00:16:06;6.70;99.90
42031;DHT22;27709;52.036;5.906;2024-02-26T00:18:33;6.80;99.90
42031;DHT22;27709;52.036;5.906;2024-02-26T00:20:58;6.80;99.90
42031;DHT22;27709;52.036;5.906;2024-02-26T00:23:24;6.70;99.90
42031;DHT22;27709;52.036;5.906;2024-02-26T00:25:49;6.80;99.90
42031;DHT22;27709;52.036;5.906;2024-02-26T00:28:15;6.80;99.90
42031;DHT22;27709;52.036;5.906;2024-02-26T00:30:41;6.80;99.90
42031;DHT22;27709;52.036;5.906;2024-02-26T00:33:06;6.80;99.90
42031;DHT22;27709;52.036;5.906;2024-02-26T00:35:32;6.80;99.90
42031;DHT22;27709;52.036;5.906;2024-02-26T00:37:57;6.80;99.90
42031;DHT22;27709;52.036;5.906;2024-02-26T00:40:24;6.70;99.90
42031;DHT22;27709;52.036;5.906;2024-02-26T00:42:49;6.70;99.90
42031;DHT22;27709;52.036;5.906;2024-02-26T00:45:15;6.70;99.90
42031;DHT22;27709;52.036;5.906;2024-02-26T00:47:42;6.60;99.90
42031;DHT22;27709;52.036;5.906;2024-02-26T00:50:08;6.60;99.90
42031;DHT22;27709;52.036;5.906;2024-02-26T00:52:34;6.60;99.90
42031;DHT22;27709;52.036;5.906;2024-02-26T00:55:01;6.70;99.90
42031;DHT22;27709;52.036;5.906;2024-02-26T00:57:27;6.70;99.90
42031;DHT22;27709;52.036;5.906;2024-02-26T00:59:52;6.70;99.90
42031;DHT22;27709;52.036;5.906;2024-02-26T01:02:18;6.80;99.90
42031;DHT22;27709;52.036;5.906;2024-02-26T01:04:43;6.80;99.90
42031;DHT22;27709;52.036;5.906;2024-02-26T01:07:10;6.80;99.90
42031;DHT22;27709;52.036;5.906;2024-02-26T01:09:36;6.80;99.90
42031;DHT22;27709;52.036;5.906;2024-02-26T01:12:01;6.80;99.90
42031;DHT22;27709;52.036;5.906;2024-02-26T01:14:28;6.90;99.90
42031;DHT22;27709;52.036;5.906;2024-02-26T01:16:53;7.00;99.90
42031;DHT22;27709;52.036;5.906;2024-02-26T01:19:21;7.00;99.90
42031;DHT22;27709;52.036;5.906;2024-02-26T01:21:47;7.00;99.90
42031;DHT22;27709;52.036;5.906;2024-02-26T01:24:13;7.10;99.90
42031;DHT22;27709;52.036;5.906;2024-02-26T01:26:39;7.00;99.90
42031;DHT22;27709;52.036;5.906;2024-02-26T01:29:04;7.00;99.90
42031;DHT22;27709;52.036;5.906;2024-02-26T01:31:30;7.00;99.90
42031;DHT22;27709;52.036;5.906;2024-02-26T01:33:55;7.00;99.90
42031;DHT22;27709;52.036;5.906;2024-02-26T01:36:21;7.00;99.90
42031;DHT22;27709;52.036;5.906;2024-02-26T01:38:47;7.00;99.90
42031;DHT22;27709;52.036;5.906;2024-02-26T01:41:13;7.00;99.90
42031;DHT22;27709;52.036;5.906;2024-02-26T01:43:39;7.00;99.90
42031;DHT22;27709;52.036;5.906;2024-02-26T01:46:06;7.00;99.90
42031;DHT22;27709;52.036;5.906;2024-02-26T01:48:32;7.00;99.90
42031;DHT22;27709;52.036;5.906;2024-02-26T01:50:58;6.90;99.90
42031;DHT22;27709;52.036;5.906;2024-02-26T01:53:24;7.00;99.90
42031;DHT22;27709;52.036;5.906;2024-02-26T01:55:50;7.00;99.90
42031;DHT22;27709;52.036;5.906;2024-02-26T01:58:18;7.00;99.90
42031;DHT22;27709;52.036;5.906;2024-02-26T02:00:46;7.00;99.90
42031;DHT22;27709;52.036;5.906;2024-02-26T02:03:14;7.00;99.90
42031;DHT22;27709;52.036;5.906;2024-02-26T02:05:41;7.10;99.90
42031;DHT22;27709;52.036;5.906;2024-02-26T02:08:10;7.10;99.90
42031;DHT22;27709;52.036;5.906;2024-02-26T02:10:37;7.10;99.90
42031;DHT22;27709;52.036;5.906;2024-02-26T02:13:03;7.10;99.90
42031;DHT22;27709;52.036;5.906;2024-02-26T02:15:29;7.10;99.90
42031;DHT22;27709;52.036;5.906;2024-02-26T02:17:55;7.00;99.90
42031;DHT22;27709;52.036;5.906;2024-02-26T02:20:26;7.10;99.90
42031;DHT22;27709;52.036;5.906;2024-02-26T02:22:56;7.10;99.90
42031;DHT22;27709;52.036;5.906;2024-02-26T02:25:22;7.20;99.90
42031;DHT22;27709;52.036;5.906;2024-02-26T02:27:47;7.20;99.90
42031;DHT22;27709;52.036;5.906;2024-02-26T02:30:13;7.20;99.90
42031;DHT22;27709;52.036;5.906;2024-02-26T02:32:40;7.20;99.90
42031;DHT22;27709;52.036;5.906;2024-02-26T02:35:07;7.20;99.90
42031;DHT22;27709;52.036;5.906;2024-02-26T02:37:32;7.20;99.90
42031;DHT22;27709;52.036;5.906;2024-02-26T02:39:58;7.20;99.90
42031;DHT22;27709;52.036;5.906;2024-02-26T02:42:24;7.20;99.90
42031;DHT22;27709;52.036;5.906;2024-02-26T02:44:50;7.20;99.90
42031;DHT22;27709;52.036;5.906;2024-02-26T02:47:15;7.20;99.90
42031;DHT22;27709;52.036;5.906;2024-02-26T02:49:41;7.20;99.90
42031;DHT22;27709;52.036;5.906;2024-02-26T02:52:06;7.20;99.90
42031;DHT22;27709;52.036;5.906;2024-02-26T02:54:32;7.30;99.90
42031;DHT22;27709;52.036;5.906;2024-02-26T02:56:58;7.30;99.90
42031;DHT22;27709;52.036;5.906;2024-02-26T02:59:24;7.20;99.90
42031;DHT22;27709;52.036;5.906;2024-02-26T03:01:49;7.20;99.90
42031;DHT22;27709;52.036;5.906;2024-02-26T03:04:15;7.20;99.90
42031;DHT22;27709;52.036;5.906;2024-02-26T03:06:40;7.20;99.90
42031;DHT22;27709;52.036;5.906;2024-02-26T03:09:06;7.20;99.90
42031;DHT22;27709;52.036;5.906;2024-02-26T03:11:31;7.20;99.90
42031;DHT22;27709;52.036;5.906;2024-02-26T03:13:57;7.20;99.90
42031;DHT22;27709;52.036;5.906;2024-02-26T03:16:23;7.20;99.90
42031;DHT22;27709;52.036;5.906;2024-02-26T03:18:51;7.20;99.90
42031;DHT22;27709;52.036;5.906;2024-02-26T03:21:17;7.20;99.90
42031;DHT22;27709;52.036;5.906;2024-02-26T03:23:43;7.10;99.90
42031;DHT22;27709;52.036;5.906;2024-02-26T03:26:08;7.20;99.90
42031;DHT22;27709;52.036;5.906;2024-02-26T03:28:38;7.20;99.90
42031;DHT22;27709;52.036;5.906;2024-02-26T03:31:04;7.20;99.90
42031;DHT22;27709;52.036;5.906;2024-02-26T03:33:30;7.20;99.90
42031;DHT22;27709;52.036;5.906;2024-02-26T03:35:55;7.20;99.90
42031;DHT22;27709;52.036;5.906;2024-02-26T03:38:21;7.30;99.90
42031;DHT22;27709;52.036;5.906;2024-02-26T03:40:47;7.20;99.90
42031;DHT22;27709;52.036;5.906;2024-02-26T03:43:17;7.20;99.90
42031;DHT22;27709;52.036;5.906;2024-02-26T03:45:42;7.10;99.90
42031;DHT22;27709;52.036;5.906;2024-02-26T03:48:08;7.20;99.90
42031;DHT22;27709;52.036;5.906;2024-02-26T03:50:33;7.20;99.90
42031;DHT22;27709;52.036;5.906;2024-02-26T03:53:00;7.20;99.90
42031;DHT22;27709;52.036;5.906;2024-02-26T03:55:25;7.20;99.90
42031;DHT22;27709;52.036;5.906;2024-02-26T03:57:52;7.30;99.90
42031;DHT22;27709;52.036;5.906;2024-02-26T04:00:17;7.30;99.90
42031;DHT22;27709;52.036;5.906;2024-02-26T04:02:43;7.30;99.90
42031;DHT22;27709;52.036;5.906;2024-02-26T04:05:10;7.20;99.90
42031;DHT22;27709;52.036;5.906;2024-02-26T04:07:36;7.20;99.90
42031;DHT22;27709;52.036;5.906;2024-02-26T04:10:01;7.20;99.90
42031;DHT22;27709;52.036;5.906;2024-02-26T04:12:33;7.20;99.90
42031;DHT22;27709;52.036;5.906;2024-02-26T04:15:00;7.10;99.90
42031;DHT22;27709;52.036;5.906;2024-02-26T04:17:25;7.10;99.90
42031;DHT22;27709;52.036;5.906;2024-02-26T04:19:51;7.10;99.90
42031;DHT22;27709;52.036;5.906;2024-02-26T04:22:17;7.10;99.90
42031;DHT22;27709;52.036;5.906;2024-02-26T04:24:42;7.10;99.90
42031;DHT22;27709;52.036;5.906;2024-02-26T04:27:08;7.10;99.90
42031;DHT22;27709;52.036;5.906;2024-02-26T04:29:34;7.00;99.90
42031;DHT22;27709;52.036;5.906;2024-02-26T04:32:02;7.00;99.90
42031;DHT22;27709;52.036;5.906;2024-02-26T04:34:28;7.10;99.90
42031;DHT22;27709;52.036;5.906;2024-02-26T04:36:53;7.00;99.90
42031;DHT22;27709;52.036;5.906;2024-02-26T04:39:19;7.00;99.90
42031;DHT22;27709;52.036;5.906;2024-02-26T04:41:44;7.00;99.90
42031;DHT22;27709;52.036;5.906;2024-02-26T04:44:10;7.00;99.90
42031;DHT22;27709;52.036;5.906;2024-02-26T04:46:35;7.00;99.90
42031;DHT22;27709;52.036;5.906;2024-02-26T04:49:01;7.00;99.90
42031;DHT22;27709;52.036;5.906;2024-02-26T04:51:27;7.00;99.90
42031;DHT22;27709;52.036;5.906;2024-02-26T04:53:52;7.00;99.90
42031;DHT22;27709;52.036;5.906;2024-02-26T04:56:22;7.00;99.90
42031;DHT22;27709;52.036;5.906;2024-02-26T04:58:47;7.00;99.90
42031;DHT22;27709;52.036;5.906;2024-02-26T05:01:19;7.00;99.90
42031;DHT22;27709;52.036;5.906;2024-02-26T05:03:44;7.00;99.90
42031;DHT22;27709;52.036;5.906;2024-02-26T05:06:10;7.00;99.90
42031;DHT22;27709;52.036;5.906;2024-02-26T05:08:39;7.00;99.90
42031;DHT22;27709;52.036;5.906;2024-02-26T05:11:05;6.90;99.90
42031;DHT22;27709;52.036;5.906;2024-02-26T05:13:31;6.90;99.90
42031;DHT22;27709;52.036;5.906;2024-02-26T05:15:57;6.90;99.90
42031;DHT22;27709;52.036;5.906;2024-02-26T05:18:23;6.90;99.90
42031;DHT22;27709;52.036;5.906;2024-02-26T05:20:49;7.00;99.90
42031;DHT22;27709;52.036;5.906;2024-02-26T05:23:17;6.90;99.90
42031;DHT22;27709;52.036;5.906;2024-02-26T05:25:46;7.00;99.90
42031;DHT22;27709;52.036;5.906;2024-02-26T05:28:13;7.00;99.90
42031;DHT22;27709;52.036;5.906;2024-02-26T05:30:43;7.00;99.90
42031;DHT22;27709;52.036;5.906;2024-02-26T05:33:09;7.00;99.90
42031;DHT22;27709;52.036;5.906;2024-02-26T05:35:35;7.00;99.90
42031;DHT22;27709;52.036;5.906;2024-02-26T05:38:02;6.90;99.90
42031;DHT22;27709;52.036;5.906;2024-02-26T05:40:29;6.80;99.90
42031;DHT22;27709;52.036;5.906;2024-02-26T05:42:55;6.80;99.90
42031;DHT22;27709;52.036;5.906;2024-02-26T05:45:23;6.80;99.90
42031;DHT22;27709;52.036;5.906;2024-02-26T05:47:51;6.80;99.90
42031;DHT22;27709;52.036;5.906;2024-02-26T05:50:16;6.70;99.90
42031;DHT22;27709;52.036;5.906;2024-02-26T05:52:42;6.70;99.90
42031;DHT22;27709;52.036;5.906;2024-02-26T05:55:08;6.70;99.90
42031;DHT22;27709;52.036;5.906;2024-02-26T05:57:35;6.60;99.90
42031;DHT22;27709;52.036;5.906;2024-02-26T06:00:02;6.60;99.90
42031;DHT22;27709;52.036;5.906;2024-02-26T06:02:32;6.60;99.90
42031;DHT22;27709;52.036;5.906;2024-02-26T06:04:58;6.60;99.90
42031;DHT22;27709;52.036;5.906;2024-02-26T06:07:26;6.60;99.90
42031;DHT22;27709;52.036;5.906;2024-02-26T06:09:54;6.60;99.90
42031;DHT22;27709;52.036;5.906;2024-02-26T06:12:20;6.50;99.90
42031;DHT22;27709;52.036;5.906;2024-02-26T06:14:48;6.50;99.90
42031;DHT22;27709;52.036;5.906;2024-02-26T06:17:14;6.60;99.90
42031;DHT22;27709;52.036;5.906;2024-02-26T06:19:43;6.60;99.90
42031;DHT22;27709;52.036;5.906;2024-02-26T06:22:09;6.60;99.90
42031;DHT22;27709;52.036;5.906;2024-02-26T06:24:34;6.60;99.90
42031;DHT22;27709;52.036;5.906;2024-02-26T06:27:03;6.60;99.90
42031;DHT22;27709;52.036;5.906;2024-02-26T06:29:29;6.60;99.90
42031;DHT22;27709;52.036;5.906;2024-02-26T06:31:54;6.60;99.90
42031;DHT22;27709;52.036;5.906;2024-02-26T06:34:21;6.60;99.90
42031;DHT22;27709;52.036;5.906;2024-02-26T06:36:46;6.60;99.90
42031;DHT22;27709;52.036;5.906;2024-02-26T06:39:12;6.60;99.90
42031;DHT22;27709;52.036;5.906;2024-02-26T06:41:38;6.60;99.90
42031;DHT22;27709;52.036;5.906;2024-02-26T06:44:05;6.60;99.90
42031;DHT22;27709;52.036;5.906;2024-02-26T06:46:31;6.60;99.90
42031;DHT22;27709;52.036;5.906;2024-02-26T06:48:56;6.70;99.90
42031;DHT22;27709;52.036;5.906;2024-02-26T06:51:22;6.70;99.90
42031;DHT22;27709;52.036;5.906;2024-02-26T06:53:49;6.70;99.90
42031;DHT22;27709;52.036;5.906;2024-02-26T06:56:15;6.70;99.90
42031;DHT22;27709;52.036;5.906;2024-02-26T06:58:40;6.70;99.90
42031;DHT22;27709;52.036;5.906;2024-02-26T07:01:06;6.70;99.90
42031;DHT22;27709;52.036;5.906;2024-02-26T07:03:33;6.70;99.90
42031;DHT22;27709;52.036;5.906;2024-02-26T07:06:02;6.70;99.90
42031;DHT22;27709;52.036;5.906;2024-02-26T07:08:29;6.70;99.90
42031;DHT22;27709;52.036;5.906;2024-02-26T07:10:55;6.70;99.90
42031;DHT22;27709;52.036;5.906;2024-02-26T07:13:21;6.80;99.90
42031;DHT22;27709;52.036;5.906;2024-02-26T07:15:46;6.80;99.90
42031;DHT22;27709;52.036;5.906;2024-02-26T07:18:15;6.80;99.90
42031;DHT22;27709;52.036;5.906;2024-02-26T07:20:40;6.80;99.90
42031;DHT22;27709;52.036;5.906;2024-02-26T07:23:06;6.80;99.90
42031;DHT22;27709;52.036;5.906;2024-02-26T07:25:32;6.80;99.90
42031;DHT22;27709;52.036;5.906;2024-02-26T07:27:57;6.70;99.90
42031;DHT22;27709;52.036;5.906;2024-02-26T07:30:23;6.70;99.90
42031;DHT22;27709;52.036;5.906;2024-02-26T07:32:50;6.70;99.90
42031;DHT22;27709;52.036;5.906;2024-02-26T07:35:15;6.70;99.90
42031;DHT22;27709;52.036;5.906;2024-02-26T07:37:42;6.70;99.90
42031;DHT22;27709;52.036;5.906;2024-02-26T07:40:09;6.70;99.90
42031;DHT22;27709;52.036;5.906;2024-02-26T07:42:35;6.70;99.90
42031;DHT22;27709;52.036;5.906;2024-02-26T07:45:00;6.70;99.90
42031;DHT22;27709;52.036;5.906;2024-02-26T07:47:26;6.70;99.90
42031;DHT22;27709;52.036;5.906;2024-02-26T07:49:54;6.60;99.90
42031;DHT22;27709;52.036;5.906;2024-02-26T07:52:19;6.60;99.90
42031;DHT22;27709;52.036;5.906;2024-02-26T07:54:46;6.60;99.90
42031;DHT22;27709;52.036;5.906;2024-02-26T07:57:12;6.60;99.90
42031;DHT22;27709;52.036;5.906;2024-02-26T07:59:40;6.70;99.90
42031;DHT22;27709;52.036;5.906;2024-02-26T08:02:06;6.70;99.90
42031;DHT22;27709;52.036;5.906;2024-02-26T08:04:35;6.70;99.90
42031;DHT22;27709;52.036;5.906;2024-02-26T08:07:00;6.70;99.90
42031;DHT22;27709;52.036;5.906;2024-02-26T08:09:29;6.80;99.90
42031;DHT22;27709;52.036;5.906;2024-02-26T08:11:55;6.80;99.90
42031;DHT22;27709;52.036;5.906;2024-02-26T08:14:20;6.80;99.90
42031;DHT22;27709;52.036;5.906;2024-02-26T08:16:46;6.70;99.90
42031;DHT22;27709;52.036;5.906;2024-02-26T08:19:14;6.80;99.90
42031;DHT22;27709;52.036;5.906;2024-02-26T08:21:42;6.80;99.90
42031;DHT22;27709;52.036;5.906;2024-02-26T08:24:08;6.80;99.90
42031;DHT22;27709;52.036;5.906;2024-02-26T08:26:33;6.80;99.90
42031;DHT22;27709;52.036;5.906;2024-02-26T08:29:02;6.70;99.90
42031;DHT22;27709;52.036;5.906;2024-02-26T08:31:27;6.60;99.90
42031;DHT22;27709;52.036;5.906;2024-02-26T08:33:53;6.70;99.90
42031;DHT22;27709;52.036;5.906;2024-02-26T08:36:29;6.70;99.90
42031;DHT22;27709;52.036;5.906;2024-02-26T08:38:56;6.70;99.90
42031;DHT22;27709;52.036;5.906;2024-02-26T08:41:24;6.80;99.90
42031;DHT22;27709;52.036;5.906;2024-02-26T08:43:50;6.80;99.90
42031;DHT22;27709;52.036;5.906;2024-02-26T08:46:17;6.80;99.90
42031;DHT22;27709;52.036;5.906;2024-02-26T08:48:45;6.90;99.90
42031;DHT22;27709;52.036;5.906;2024-02-26T08:51:49;6.90;99.90
42031;DHT22;27709;52.036;5.906;2024-02-26T08:54:15;6.80;99.90
42031;DHT22;27709;52.036;5.906;2024-02-26T08:56:41;6.80;99.90
42031;DHT22;27709;52.036;5.906;2024-02-26T08:59:06;6.80;99.90
42031;DHT22;27709;52.036;5.906;2024-02-26T09:01:32;6.70;99.90
42031;DHT22;27709;52.036;5.906;2024-02-26T09:03:58;6.70;99.90
42031;DHT22;27709;52.036;5.906;2024-02-26T09:06:23;6.70;99.90
42031;DHT22;27709;52.036;5.906;2024-02-26T09:08:49;6.60;99.90
42031;DHT22;27709;52.036;5.906;2024-02-26T09:11:16;6.70;99.90
42031;DHT22;27709;52.036;5.906;2024-02-26T09:13:44;6.80;99.90
42031;DHT22;27709;52.036;5.906;2024-02-26T09:16:11;6.80;99.90
42031;DHT22;27709;52.036;5.906;2024-02-26T09:18:37;6.90;99.90
42031;DHT22;27709;52.036;5.906;2024-02-26T09:21:06;6.90;99.90
42031;DHT22;27709;52.036;5.906;2024-02-26T09:23:32;6.90;99.90
42031;DHT22;27709;52.036;5.906;2024-02-26T09:25:58;6.90;99.90
42031;DHT22;27709;52.036;5.906;2024-02-26T09:28:23;6.90;99.90
42031;DHT22;27709;52.036;5.906;2024-02-26T09:30:49;6.90;99.90
42031;DHT22;27709;52.036;5.906;2024-02-26T09:33:15;6.90;99.90
42031;DHT22;27709;52.036;5.906;2024-02-26T09:35:41;6.90;99.90
42031;DHT22;27709;52.036;5.906;2024-02-26T09:38:07;6.80;99.90
42031;DHT22;27709;52.036;5.906;2024-02-26T09:40:32;6.80;99.90
42031;DHT22;27709;52.036;5.906;2024-02-26T09:43:04;6.90;99.90
42031;DHT22;27709;52.036;5.906;2024-02-26T09:45:32;6.80;99.90
42031;DHT22;27709;52.036;5.906;2024-02-26T09:47:58;6.80;99.90
42031;DHT22;27709;52.036;5.906;2024-02-26T09:50:24;6.80;99.90
42031;DHT22;27709;52.036;5.906;2024-02-26T09:52:51;6.80;99.90
42031;DHT22;27709;52.036;5.906;2024-02-26T09:55:17;6.80;99.90
42031;DHT22;27709;52.036;5.906;2024-02-26T09:57:48;6.90;99.90
42031;DHT22;27709;52.036;5.906;2024-02-26T10:00:18;6.90;99.90
42031;DHT22;27709;52.036;5.906;2024-02-26T10:02:47;6.90;99.90
42031;DHT22;27709;52.036;5.906;2024-02-26T10:05:16;6.90;99.90
42031;DHT22;27709;52.036;5.906;2024-02-26T10:07:44;6.90;99.90
42031;DHT22;27709;52.036;5.906;2024-02-26T10:10:10;6.90;99.90
42031;DHT22;27709;52.036;5.906;2024-02-26T10:12:36;6.90;99.90
42031;DHT22;27709;52.036;5.906;2024-02-26T10:15:01;6.90;99.90
42031;DHT22;27709;52.036;5.906;2024-02-26T10:17:27;6.90;99.90
42031;DHT22;27709;52.036;5.906;2024-02-26T10:19:54;6.90;99.90
42031;DHT22;27709;52.036;5.906;2024-02-26T10:22:22;6.90;99.90
42031;DHT22;27709;52.036;5.906;2024-02-26T10:24:48;7.00;99.90
42031;DHT22;27709;52.036;5.906;2024-02-26T10:27:15;7.00;99.90
42031;DHT22;27709;52.036;5.906;2024-02-26T10:29:40;7.00;99.90
42031;DHT22;27709;52.036;5.906;2024-02-26T10:32:09;7.00;99.90
42031;DHT22;27709;52.036;5.906;2024-02-26T10:34:35;7.00;99.90
42031;DHT22;27709;52.036;5.906;2024-02-26T10:37:03;7.00;99.90
42031;DHT22;27709;52.036;5.906;2024-02-26T10:39:30;7.00;99.90
42031;DHT22;27709;52.036;5.906;2024-02-26T10:41:55;7.00;99.90
42031;DHT22;27709;52.036;5.906;2024-02-26T10:44:21;7.00;99.90
42031;DHT22;27709;52.036;5.906;2024-02-26T10:46:47;7.00;99.90
42031;DHT22;27709;52.036;5.906;2024-02-26T10:49:15;7.00;99.90
42031;DHT22;27709;52.036;5.906;2024-02-26T10:51:47;7.10;99.90
42031;DHT22;27709;52.036;5.906;2024-02-26T10:54:16;7.00;99.90
42031;DHT22;27709;52.036;5.906;2024-02-26T10:56:42;7.00;99.90
42031;DHT22;27709;52.036;5.906;2024-02-26T10:59:09;7.10;99.90
42031;DHT22;27709;52.036;5.906;2024-02-26T11:01:36;7.10;99.90
42031;DHT22;27709;52.036;5.906;2024-02-26T11:04:04;7.10;99.90
42031;DHT22;27709;52.036;5.906;2024-02-26T11:06:30;7.10;99.90
42031;DHT22;27709;52.036;5.906;2024-02-26T11:08:56;7.10;99.90
42031;DHT22;27709;52.036;5.906;2024-02-26T11:11:24;7.10;99.90
42031;DHT22;27709;52.036;5.906;2024-02-26T11:13:53;7.10;99.90
42031;DHT22;27709;52.036;5.906;2024-02-26T11:16:23;7.10;99.90
42031;DHT22;27709;52.036;5.906;2024-02-26T11:18:49;7.10;99.90
42031;DHT22;27709;52.036;5.906;2024-02-26T11:21:17;7.10;99.90
42031;DHT22;27709;52.036;5.906;2024-02-26T11:23:53;7.10;99.90
42031;DHT22;27709;52.036;5.906;2024-02-26T11:26:20;7.00;99.90
42031;DHT22;27709;52.036;5.906;2024-02-26T11:28:47;7.00;99.90
42031;DHT22;27709;52.036;5.906;2024-02-26T11:31:13;7.00;99.90
42031;DHT22;27709;52.036;5.906;2024-02-26T11:33:39;7.10;99.90
42031;DHT22;27709;52.036;5.906;2024-02-26T11:36:09;7.10;99.90
42031;DHT22;27709;52.036;5.906;2024-02-26T11:38:35;7.10;99.90
42031;DHT22;27709;52.036;5.906;2024-02-26T11:41:01;7.10;99.90
42031;DHT22;27709;52.036;5.906;2024-02-26T11:44:00;7.00;99.90
42031;DHT22;27709;52.036;5.906;2024-02-26T11:46:33;7.10;99.90
42031;DHT22;27709;52.036;5.906;2024-02-26T11:51:54;7.20;99.90
42031;DHT22;27709;52.036;5.906;2024-02-26T11:54:48;7.30;99.90
42031;DHT22;27709;52.036;5.906;2024-02-26T11:57:38;7.30;99.90
42031;DHT22;27709;52.036;5.906;2024-02-26T12:05:17;7.30;99.90
42031;DHT22;27709;52.036;5.906;2024-02-26T12:08:21;7.30;99.90
42031;DHT22;27709;52.036;5.906;2024-02-26T12:10:42;7.30;99.90
42031;DHT22;27709;52.036;5.906;2024-02-26T12:13:16;7.20;99.90
42031;DHT22;27709;52.036;5.906;2024-02-26T12:15:44;7.30;99.90
42031;DHT22;27709;52.036;5.906;2024-02-26T12:18:15;7.40;99.90
42031;DHT22;27709;52.036;5.906;2024-02-26T12:20:42;7.40;99.90
42031;DHT22;27709;52.036;5.906;2024-02-26T12:23:15;7.40;99.90
42031;DHT22;27709;52.036;5.906;2024-02-26T12:25:43;7.40;99.90
42031;DHT22;27709;52.036;5.906;2024-02-26T12:28:09;7.40;99.90
42031;DHT22;27709;52.036;5.906;2024-02-26T12:30:35;7.40;99.90
42031;DHT22;27709;52.036;5.906;2024-02-26T12:33:00;7.40;99.90
42031;DHT22;27709;52.036;5.906;2024-02-26T12:35:27;7.40;99.90
42031;DHT22;27709;52.036;5.906;2024-02-26T12:37:54;7.50;99.90
42031;DHT22;27709;52.036;5.906;2024-02-26T12:40:20;7.50;99.90
42031;DHT22;27709;52.036;5.906;2024-02-26T12:42:46;7.50;99.90
42031;DHT22;27709;52.036;5.906;2024-02-26T12:45:13;7.50;99.90
42031;DHT22;27709;52.036;5.906;2024-02-26T12:47:40;7.60;99.90
42031;DHT22;27709;52.036;5.906;2024-02-26T12:50:07;7.60;99.90
42031;DHT22;27709;52.036;5.906;2024-02-26T12:52:34;7.60;99.90
42031;DHT22;27709;52.036;5.906;2024-02-26T12:55:04;7.60;99.90
42031;DHT22;27709;52.036;5.906;2024-02-26T12:57:32;7.70;99.90
42031;DHT22;27709;52.036;5.906;2024-02-26T12:59:59;7.70;99.90
42031;DHT22;27709;52.036;5.906;2024-02-26T13:02:25;7.60;99.90
42031;DHT22;27709;52.036;5.906;2024-02-26T13:04:52;7.60;99.90
42031;DHT22;27709;52.036;5.906;2024-02-26T13:07:18;7.60;99.90
42031;DHT22;27709;52.036;5.906;2024-02-26T13:09:45;7.60;99.90
42031;DHT22;27709;52.036;5.906;2024-02-26T13:12:12;7.60;99.90
42031;DHT22;27709;52.036;5.906;2024-02-26T13:14:38;7.70;99.90
42031;DHT22;27709;52.036;5.906;2024-02-26T13:17:04;7.80;99.90
42031;DHT22;27709;52.036;5.906;2024-02-26T13:19:30;7.80;99.90
42031;DHT22;27709;52.036;5.906;2024-02-26T13:21:55;7.80;99.90
42031;DHT22;27709;52.036;5.906;2024-02-26T13:24:22;7.80;99.90
42031;DHT22;27709;52.036;5.906;2024-02-26T13:26:54;7.80;99.90
42031;DHT22;27709;52.036;5.906;2024-02-26T13:29:20;7.80;99.90
42031;DHT22;27709;52.036;5.906;2024-02-26T13:31:46;7.80;99.90
42031;DHT22;27709;52.036;5.906;2024-02-26T13:34:25;7.80;99.90
42031;DHT22;27709;52.036;5.906;2024-02-26T13:36:51;7.90;99.90
42031;DHT22;27709;52.036;5.906;2024-02-26T13:39:24;7.90;99.90
42031;DHT22;27709;52.036;5.906;2024-02-26T13:41:51;8.00;99.90
42031;DHT22;27709;52.036;5.906;2024-02-26T13:44:17;7.90;99.90
42031;DHT22;27709;52.036;5.906;2024-02-26T13:46:42;7.90;99.90
42031;DHT22;27709;52.036;5.906;2024-02-26T13:49:09;7.90;99.90
42031;DHT22;27709;52.036;5.906;2024-02-26T13:51:35;7.90;99.90
42031;DHT22;27709;52.036;5.906;2024-02-26T13:54:02;7.80;99.90
42031;DHT22;27709;52.036;5.906;2024-02-26T13:56:28;7.90;99.90
42031;DHT22;27709;52.036;5.906;2024-02-26T13:58:53;7.90;99.90
42031;DHT22;27709;52.036;5.906;2024-02-26T14:01:19;7.90;99.90
42031;DHT22;27709;52.036;5.906;2024-02-26T14:03:45;8.00;99.90
42031;DHT22;27709;52.036;5.906;2024-02-26T14:06:11;7.90;99.90
42031;DHT22;27709;52.036;5.906;2024-02-26T14:08:37;8.00;99.90
42031;DHT22;27709;52.036;5.906;2024-02-26T14:11:02;8.10;99.90
42031;DHT22;27709;52.036;5.906;2024-02-26T14:13:28;8.10;99.90
42031;DHT22;27709;52.036;5.906;2024-02-26T14:15:54;8.20;99.90
42031;DHT22;27709;52.036;5.906;2024-02-26T14:18:19;8.20;99.90
42031;DHT22;27709;52.036;5.906;2024-02-26T14:20:45;8.20;99.90
42031;DHT22;27709;52.036;5.906;2024-02-26T14:23:10;8.40;99.90
42031;DHT22;27709;52.036;5.906;2024-02-26T14:25:36;8.30;99.90
42031;DHT22;27709;52.036;5.906;2024-02-26T14:28:02;8.30;99.90
42031;DHT22;27709;52.036;5.906;2024-02-26T14:30:28;8.20;99.90
42031;DHT22;27709;52.036;5.906;2024-02-26T14:32:54;8.30;99.90
42031;DHT22;27709;52.036;5.906;2024-02-26T14:35:20;8.30;99.90
42031;DHT22;27709;52.036;5.906;2024-02-26T14:37:45;8.30;99.90
42031;DHT22;27709;52.036;5.906;2024-02-26T14:40:13;8.20;99.90
42031;DHT22;27709;52.036;5.906;2024-02-26T14:42:39;8.20;99.90
42031;DHT22;27709;52.036;5.906;2024-02-26T14:45:05;8.20;99.90
42031;DHT22;27709;52.036;5.906;2024-02-26T14:47:34;8.30;99.90
42031;DHT22;27709;52.036;5.906;2024-02-26T14:50:00;8.30;99.90
42031;DHT22;27709;52.036;5.906;2024-02-26T14:52:26;8.40;99.90
42031;DHT22;27709;52.036;5.906;2024-02-26T14:54:51;8.30;99.90
42031;DHT22;27709;52.036;5.906;2024-02-26T14:57:17;8.40;99.90
42031;DHT22;27709;52.036;5.906;2024-02-26T14:59:42;8.40;99.90
42031;DHT22;27709;52.036;5.906;2024-02-26T15:02:09;8.30;99.90
42031;DHT22;27709;52.036;5.906;2024-02-26T15:04:36;8.20;99.90
42031;DHT22;27709;52.036;5.906;2024-02-26T15:07:01;8.20;99.90
42031;DHT22;27709;52.036;5.906;2024-02-26T15:09:27;8.20;99.90
42031;DHT22;27709;52.036;5.906;2024-02-26T15:11:53;8.10;99.90
42031;DHT22;27709;52.036;5.906;2024-02-26T15:14:19;8.20;99.90
42031;DHT22;27709;52.036;5.906;2024-02-26T15:16:44;8.20;99.90
42031;DHT22;27709;52.036;5.906;2024-02-26T15:19:10;8.20;99.90
42031;DHT22;27709;52.036;5.906;2024-02-26T15:21:43;8.20;99.90
42031;DHT22;27709;52.036;5.906;2024-02-26T15:24:08;8.20;99.90
42031;DHT22;27709;52.036;5.906;2024-02-26T15:26:36;8.10;99.90
42031;DHT22;27709;52.036;5.906;2024-02-26T15:29:02;8.10;99.90
42031;DHT22;27709;52.036;5.906;2024-02-26T15:31:28;8.10;99.90
42031;DHT22;27709;52.036;5.906;2024-02-26T15:33:53;8.00;99.90
42031;DHT22;27709;52.036;5.906;2024-02-26T15:36:19;8.00;99.90
42031;DHT22;27709;52.036;5.906;2024-02-26T15:38:44;8.00;99.90
42031;DHT22;27709;52.036;5.906;2024-02-26T15:41:13;7.90;99.90
42031;DHT22;27709;52.036;5.906;2024-02-26T15:43:39;7.90;99.90
42031;DHT22;27709;52.036;5.906;2024-02-26T15:46:05;7.90;99.90
42031;DHT22;27709;52.036;5.906;2024-02-26T15:48:32;7.90;99.90
42031;DHT22;27709;52.036;5.906;2024-02-26T15:50:58;7.80;99.90